Time;durP1;ratioP1;P1;durP2;ratioP2;P2;SDS_P1;SDS_P2;PMS_P1;PMS_P2;Temp;Humidity;BMP_temperature;BMP_pressure;BME280_temperature;BME280_humidity;BME280_pressure;Samples;Min_cycle;Max_cycle;Signal;HPM_P1;HPM_P2
2022/01/14 00:02:07;;;;;;;50.08;25.85;;;;;;;4.54;79.80;103272.44;5034533;28;20046;-69
2022/01/14 00:04:36;;;;;;;43.58;24.25;;;;;;;4.63;80.54;103272.19;5034796;28;20057;-70
2022/01/14 00:07:04;;;;;;;46.55;25.80;;;;;;;4.74;80.00;103268.81;5035285;28;20049;-71
2022/01/14 00:09:33;;;;;;;45.50;25.88;;;;;;;4.75;79.73;103259.56;5034440;28;20064;-71
2022/01/14 00:12:04;;;;;;;;;;;;;;;4.77;79.68;103261.06;5035547;28;20064;-69
2022/01/14 00:14:40;;;;;;;44.88;25.33;;;;;;;4.72;79.52;103265.47;5034182;28;20391;-69
2022/01/14 00:17:11;;;;;;;47.42;24.75;;;;;;;4.74;79.29;103257.91;5026553;28;20068;-69
2022/01/14 00:19:39;;;;;;;45.78;25.00;;;;;;;4.84;79.19;103255.56;5013413;28;20054;-70
2022/01/14 00:22:12;;;;;;;45.08;25.02;;;;;;;4.82;78.43;103257.66;5013244;28;20054;-69
2022/01/14 00:33:08;;;;;;;50.58;25.25;;;;;;;4.81;79.56;103262.31;5037281;28;20053;-70
2022/01/14 00:35:40;;;;;;;44.10;24.55;;;;;;;4.78;78.94;103257.25;5038065;28;20057;-70
2022/01/14 00:38:12;;;;;;;45.05;24.90;;;;;;;4.54;79.92;103257.94;5032643;28;20049;-70
2022/01/14 00:40:40;;;;;;;46.17;25.10;;;;;;;4.37;80.66;103252.09;5017491;28;20057;-69
2022/01/14 00:43:09;;;;;;;51.08;24.10;;;;;;;4.48;80.01;103247.88;5017065;28;20038;-69
2022/01/14 00:45:37;;;;;;;42.60;24.13;;;;;;;4.28;80.83;103242.41;5018119;28;20050;-71
2022/01/14 00:48:04;;;;;;;42.67;24.55;;;;;;;4.25;81.46;103248.28;5018500;28;20061;-70
2022/01/14 00:50:33;;;;;;;38.17;22.52;;;;;;;4.08;81.92;103244.28;5017194;28;20049;-69
2022/01/14 00:53:01;;;;;;;45.22;23.98;;;;;;;4.55;81.32;103254.97;5035705;28;20052;-69
2022/01/14 00:55:40;;;;;;;41.47;24.02;;;;;;;4.85;79.63;103249.03;5037769;28;20488;-70
2022/01/14 01:00:53;;;;;;;41.67;23.65;;;;;;;4.32;80.33;103254.56;5005581;28;20045;-70
2022/01/14 01:03:20;;;;;;;42.55;23.42;;;;;;;4.57;80.38;103252.03;5037527;28;20061;-71
2022/01/14 01:05:47;;;;;;;38.50;21.40;;;;;;;4.39;80.29;103255.41;5037478;28;20412;-69
2022/01/14 01:08:21;;;;;;;40.15;20.73;;;;;;;4.41;80.48;103252.50;5004499;28;20428;-71
2022/01/14 01:10:49;;;;;;;37.85;22.25;;;;;;;4.40;80.47;103248.91;5036428;28;20053;-70
2022/01/14 01:13:24;;;;;;;40.00;22.80;;;;;;;4.27;80.72;103248.09;5036127;28;20057;-70
2022/01/14 01:15:53;;;;;;;41.42;21.80;;;;;;;4.16;81.09;103246.00;5036141;28;20064;-70
2022/01/14 01:18:21;;;;;;;41.53;22.77;;;;;;;4.20;81.38;103250.81;5036324;28;20052;-70
2022/01/14 01:20:49;;;;;;;40.10;22.83;;;;;;;4.29;80.74;103259.59;5019633;28;20608;-69
2022/01/14 01:23:17;;;;;;;43.67;23.35;;;;;;;4.48;80.27;103251.41;5029863;28;20476;-70
2022/01/14 01:26:07;;;;;;;;;;;;;;;4.30;80.39;103255.84;5016393;28;20050;-69
2022/01/14 01:28:53;;;;;;;42.33;23.63;;;;;;;4.20;80.89;103252.72;5023365;28;19927;-71
2022/01/14 01:31:37;;;;;;;41.60;23.13;;;;;;;4.51;80.81;103251.03;5037216;28;20053;-69
2022/01/14 01:34:07;;;;;;;45.58;23.23;;;;;;;4.31;80.60;103239.25;5037575;28;20049;-70
2022/01/14 01:36:35;;;;;;;42.53;23.87;;;;;;;4.47;79.92;103233.38;5036455;28;20072;-69
2022/01/14 01:39:05;;;;;;;43.70;24.95;;;;;;;4.07;81.37;103236.31;5037209;28;20057;-71
2022/01/14 01:41:34;;;;;;;47.85;25.95;;;;;;;4.23;80.58;103246.81;5035371;28;20523;-65
2022/01/14 01:44:06;;;;;;;41.28;24.45;;;;;;;4.04;81.41;103244.94;5037304;28;20060;-65
2022/01/14 01:46:38;;;;;;;43.35;24.50;;;;;;;4.23;81.03;103239.50;5035705;28;20485;-65
2022/01/14 01:49:07;;;;;;;41.45;24.42;;;;;;;4.20;80.94;103242.63;5037040;28;20049;-70
2022/01/14 01:51:35;;;;;;;49.30;26.17;;;;;;;4.05;81.61;103247.44;5036725;28;20080;-70
2022/01/14 01:54:03;;;;;;;42.85;24.90;;;;;;;4.12;81.32;103239.25;5037186;28;20292;-69
2022/01/14 01:56:30;;;;;;;47.33;24.92;;;;;;;4.27;81.38;103245.38;5036761;28;20053;-70
2022/01/14 01:58:58;;;;;;;42.17;24.75;;;;;;;4.08;81.36;103243.47;5035205;28;20515;-69
2022/01/14 02:01:26;;;;;;;43.25;24.85;;;;;;;4.16;81.28;103233.19;5035339;28;20053;-70
2022/01/14 02:03:54;;;;;;;43.35;24.92;;;;;;;4.02;81.81;103236.13;5036295;28;20056;-70
2022/01/14 02:06:22;;;;;;;46.95;24.48;;;;;;;4.32;81.47;103231.94;5035465;28;20056;-70
2022/01/14 02:08:51;;;;;;;45.42;25.33;;;;;;;4.43;80.52;103225.81;5036560;28;20076;-69
2022/01/14 02:11:18;;;;;;;43.92;24.63;;;;;;;4.38;80.22;103220.16;5036694;28;20049;-70
2022/01/14 02:13:48;;;;;;;44.90;23.90;;;;;;;4.57;79.69;103227.47;5036004;28;20045;-70
2022/01/14 02:16:20;;;;;;;47.40;25.17;;;;;;;4.46;79.20;103223.50;5036010;28;20053;-69
2022/01/14 02:19:10;;;;;;;43.42;23.55;;;;;;;4.38;80.13;103220.16;5036396;28;20053;-70
2022/01/14 02:26:51;;;;;;;44.10;24.77;;;;;;;4.12;81.28;103228.34;5031953;28;20060;-70
2022/01/14 02:29:20;;;;;;;45.67;23.80;;;;;;;4.01;81.51;103213.44;5035753;28;20386;-69
2022/01/14 02:31:47;;;;;;;42.10;23.80;;;;;;;4.06;82.08;103210.94;5035847;28;20171;-70
2022/01/14 02:34:16;;;;;;;40.88;23.55;;;;;;;4.36;81.35;103214.06;5035779;28;20049;-70
2022/01/14 02:36:45;;;;;;;43.72;23.83;;;;;;;4.64;80.04;103203.75;5035882;28;20045;-69
2022/01/14 02:39:14;;;;;;;41.15;24.73;;;;;;;4.46;79.38;103200.84;5027719;28;20052;-70
2022/01/14 02:41:43;;;;;;;44.40;24.38;;;;;;;4.42;80.19;103194.97;5034624;28;20164;-70
2022/01/14 02:44:17;;;;;;;43.10;24.60;;;;;;;4.38;80.43;103188.25;5034316;28;20057;-70
2022/01/14 02:47:04;;;;;;;43.08;24.25;;;;;;;4.46;79.82;103190.75;5033608;28;20059;-69
2022/01/14 02:49:33;;;;;;;45.55;25.05;;;;;;;4.30;80.03;103193.94;5034751;28;20045;-70
2022/01/14 02:52:04;;;;;;;;;;;;;;;4.64;79.56;103197.47;5036271;28;20057;-69
2022/01/14 02:54:40;;;;;;;42.97;23.48;;;;;;;4.59;78.80;103209.84;5034244;28;19928;-69
2022/01/14 02:57:09;;;;;;;46.55;24.25;;;;;;;4.08;80.67;103195.22;5033959;28;20060;-69
2022/01/14 02:59:39;;;;;;;43.65;25.45;;;;;;;3.87;81.91;103192.69;5017795;28;20389;-71
2022/01/14 03:02:09;;;;;;;45.03;24.10;;;;;;;3.88;82.57;103179.91;5035911;28;20408;-71
2022/01/14 03:04:39;;;;;;;42.88;25.42;;;;;;;4.08;81.88;103173.38;5035762;28;20427;-70
2022/01/14 03:07:08;;;;;;;45.53;25.42;;;;;;;4.32;80.79;103175.47;5034342;28;20057;-69
2022/01/14 03:09:37;;;;;;;40.93;24.00;;;;;;;4.52;80.42;103172.69;5017844;28;20049;-70
2022/01/14 03:12:06;;;;;;;41.72;23.63;;;;;;;4.47;79.74;103169.78;5035537;28;20053;-70
2022/01/14 03:14:33;;;;;;;44.88;24.48;;;;;;;4.49;79.50;103171.25;5017197;28;20045;-71
2022/01/14 03:17:01;;;;;;;44.50;24.52;;;;;;;4.69;78.85;103160.25;5034445;28;20045;-70
2022/01/14 03:19:29;;;;;;;44.25;24.48;;;;;;;4.83;78.63;103164.63;5035317;28;20049;-69
2022/01/14 03:22:06;;;;;;;39.47;23.92;;;;;;;4.42;78.76;103166.84;5035012;28;20045;-70
2022/01/14 03:27:05;;;;;;;40.42;23.15;;;;;;;4.36;80.45;103163.06;5014472;28;20041;-70
2022/01/14 03:29:32;;;;;;;44.25;23.23;;;;;;;4.66;79.06;103155.22;5015319;28;20073;-70
2022/01/14 03:32:01;;;;;;;44.95;23.30;;;;;;;4.40;78.98;103163.50;5015769;28;20057;-70
2022/01/14 03:34:28;;;;;;;43.83;23.38;;;;;;;4.43;79.61;103157.59;5014431;28;20046;-69
2022/01/14 03:36:56;;;;;;;43.53;24.88;;;;;;;4.34;79.71;103164.34;5031379;28;20057;-70
2022/01/14 03:39:23;;;;;;;40.30;22.60;;;;;;;4.47;79.46;103159.72;5035379;28;20045;-69
2022/01/14 03:41:50;;;;;;;41.28;24.50;;;;;;;4.02;80.35;103165.22;5035205;28;20053;-71
2022/01/14 03:44:18;;;;;;;42.72;24.13;;;;;;;3.97;81.75;103168.59;5034982;28;20046;-69
2022/01/14 03:46:46;;;;;;;40.38;24.10;;;;;;;3.94;81.52;103166.25;5033732;28;20053;-70
2022/01/14 03:49:14;;;;;;;40.75;25.23;;;;;;;3.91;81.81;103168.56;5034878;28;20053;-69
2022/01/14 03:51:44;;;;;;;41.13;24.58;;;;;;;4.21;81.39;103167.09;5035058;28;20048;-69
2022/01/14 03:54:11;;;;;;;40.70;23.30;;;;;;;4.33;80.34;103149.88;5035320;28;20076;-70
2022/01/14 03:56:39;;;;;;;39.05;23.20;;;;;;;4.13;80.64;103150.97;5035044;28;20058;-71
2022/01/14 03:59:06;;;;;;;42.10;24.13;;;;;;;4.10;80.96;103151.34;5034912;28;20064;-70
2022/01/14 04:01:33;;;;;;;42.67;24.17;;;;;;;4.36;80.63;103149.44;5034914;28;20412;-70
2022/01/14 04:04:01;;;;;;;43.88;23.42;;;;;;;4.44;79.33;103153.84;5034497;28;20615;-70
2022/01/14 04:06:30;;;;;;;40.15;23.35;;;;;;;4.56;79.04;103143.94;5038867;28;20084;-71
2022/01/14 04:08:58;;;;;;;41.75;23.63;;;;;;;4.56;78.43;103147.50;5038845;28;20520;-70
2022/01/14 04:11:25;;;;;;;40.63;23.08;;;;;;;4.30;79.42;103147.56;5038985;28;20432;-70
2022/01/14 04:13:55;;;;;;;44.17;24.25;;;;;;;4.39;79.77;103140.00;5020656;28;20053;-70
2022/01/14 04:16:24;;;;;;;41.67;23.48;;;;;;;4.54;79.04;103146.03;5021321;28;20066;-69
2022/01/14 04:18:52;;;;;;;45.97;25.15;;;;;;;4.21;79.74;103159.75;5038597;28;20060;-70
2022/01/14 04:21:19;;;;;;;40.78;23.08;;;;;;;4.34;79.73;103153.44;5038758;28;20053;-71
2022/01/14 04:23:47;;;;;;;39.85;24.05;;;;;;;4.10;80.15;103154.09;5025914;28;20053;-70
2022/01/14 04:26:15;;;;;;;44.03;23.67;;;;;;;4.12;80.79;103149.25;5018500;28;20056;-70
2022/01/14 04:28:42;;;;;;;42.10;24.25;;;;;;;4.15;80.70;103148.84;5018715;28;20057;-70
2022/01/14 04:31:10;;;;;;;41.00;23.35;;;;;;;4.42;80.04;103147.75;5030593;28;20427;-70
2022/01/14 04:33:38;;;;;;;41.00;24.00;;;;;;;4.32;79.44;103142.72;5038378;28;20056;-70
2022/01/14 04:36:06;;;;;;;40.10;24.02;;;;;;;4.27;79.78;103139.78;5038556;28;20038;-70
2022/01/14 04:38:33;;;;;;;43.67;23.17;;;;;;;4.46;79.52;103138.09;5038526;28;20049;-69
2022/01/14 04:41:02;;;;;;;42.15;23.70;;;;;;;4.01;80.25;103131.66;5031420;28;20057;-70
2022/01/14 04:43:30;;;;;;;45.42;23.90;;;;;;;4.21;80.23;103127.03;5029742;28;20073;-70
2022/01/14 04:48:29;;;;;;;41.20;23.83;;;;;;;4.25;79.81;103120.06;5032839;28;20053;-69
2022/01/14 04:50:57;;;;;;;41.20;24.88;;;;;;;3.89;81.04;103118.91;5038172;28;20053;-70
2022/01/14 04:53:25;;;;;;;51.60;25.30;;;;;;;3.92;81.37;103111.13;5038081;28;20056;-70
2022/01/14 04:55:53;;;;;;;47.30;26.65;;;;;;;3.57;82.90;103117.00;5038028;28;20072;-69
2022/01/14 04:58:21;;;;;;;42.92;25.17;;;;;;;3.95;82.46;103115.31;5037653;28;20053;-70
2022/01/14 05:00:49;;;;;;;44.35;25.67;;;;;;;3.90;82.02;103115.94;5038091;28;20088;-69
2022/01/14 05:03:16;;;;;;;45.13;27.38;;;;;;;3.87;82.28;103126.44;5020734;28;20424;-70
2022/01/14 05:05:47;;;;;;;45.25;25.73;;;;;;;4.08;81.69;103120.75;5018073;28;20046;-70
2022/01/14 05:13:43;;;;;;;40.15;24.70;;;;;;;3.92;81.59;103119.31;5032472;28;20445;-70
2022/01/14 05:16:11;;;;;;;40.63;23.80;;;;;;;4.07;81.30;103117.19;5018851;28;20056;-69
2022/01/14 05:18:38;;;;;;;38.75;23.10;;;;;;;3.97;80.74;103111.34;5030604;28;20049;-70
2022/01/14 05:21:06;;;;;;;38.22;21.35;;;;;;;3.66;81.48;103118.47;5037699;28;20508;-69
2022/01/14 05:23:33;;;;;;;34.92;20.90;;;;;;;3.66;81.58;103119.28;5036158;28;20060;-69
2022/01/14 05:26:01;;;;;;;36.97;21.92;;;;;;;3.89;81.60;103108.00;5036742;28;20428;-69
2022/01/14 05:28:28;;;;;;;36.78;21.88;;;;;;;4.16;80.32;103115.06;5037220;28;20125;-70
2022/01/14 05:30:55;;;;;;;38.88;21.45;;;;;;;4.28;79.40;103113.38;5035089;28;20053;-70
2022/01/14 05:33:22;;;;;;;35.33;21.45;;;;;;;4.25;79.26;103119.25;5037226;28;20049;-70
2022/01/14 05:35:50;;;;;;;39.22;23.23;;;;;;;4.21;79.40;103109.81;5035692;28;20057;-69
2022/01/14 05:38:17;;;;;;;39.63;23.10;;;;;;;4.16;79.46;103118.66;5037144;28;20049;-70
2022/01/14 05:40:44;;;;;;;40.00;22.98;;;;;;;4.37;79.30;103118.38;5037057;28;20056;-69
2022/01/14 05:43:11;;;;;;;44.63;24.42;;;;;;;4.10;79.61;103133.13;5037297;28;20053;-71
2022/01/14 05:45:38;;;;;;;44.47;26.42;;;;;;;3.96;80.40;103134.19;5036896;28;20107;-69
2022/01/14 05:48:06;;;;;;;39.40;24.00;;;;;;;4.03;80.23;103140.47;5035762;28;20488;-69
2022/01/14 05:50:33;;;;;;;42.85;25.75;;;;;;;3.75;81.60;103136.31;5019578;28;20057;-71
2022/01/14 05:53:00;;;;;;;48.15;25.77;;;;;;;3.86;81.42;103135.66;5035413;28;20060;-70
2022/01/14 05:55:27;;;;;;;45.15;24.95;;;;;;;3.88;81.52;103137.13;5036700;28;20048;-70
2022/01/14 05:57:55;;;;;;;42.67;25.65;;;;;;;3.80;81.33;103133.78;5036579;28;20514;-70
2022/01/14 06:00:22;;;;;;;41.53;24.77;;;;;;;3.90;81.48;103132.31;5035655;28;20156;-70
2022/01/14 06:02:50;;;;;;;46.28;25.33;;;;;;;4.36;80.31;103140.41;5036618;28;20049;-71
2022/01/14 06:05:19;;;;;;;43.83;24.58;;;;;;;4.54;79.15;103133.25;5035398;28;20056;-71
2022/01/14 06:07:46;;;;;;;44.63;25.05;;;;;;;3.88;80.49;103137.13;5036036;28;20408;-70
2022/01/14 06:10:14;;;;;;;43.28;25.10;;;;;;;4.08;80.44;103127.03;5036405;28;20050;-70
2022/01/14 06:12:41;;;;;;;41.15;24.60;;;;;;;4.37;79.90;103126.56;5036391;28;20053;-71
2022/01/14 06:15:08;;;;;;;42.58;25.73;;;;;;;4.49;78.82;103126.75;5036644;28;20061;-70
2022/01/14 06:17:36;;;;;;;42.17;24.92;;;;;;;4.51;78.69;103133.69;5036382;28;20073;-70
2022/01/14 06:20:04;;;;;;;44.10;25.60;;;;;;;4.28;78.66;103121.53;5036497;28;20050;-70
2022/01/14 06:22:31;;;;;;;40.20;24.13;;;;;;;3.94;80.10;103128.09;5034927;28;20051;-70
2022/01/14 06:25:00;;;;;;;53.45;24.75;;;;;;;4.02;80.27;103127.03;5016671;28;20060;-70
2022/01/14 06:27:27;;;;;;;44.08;25.85;;;;;;;4.03;80.73;103132.28;4998218;28;20054;-71
2022/01/14 06:29:55;;;;;;;48.00;25.08;;;;;;;4.35;79.72;103125.94;5016553;28;20050;-72
2022/01/14 06:32:22;;;;;;;44.25;25.88;;;;;;;3.71;81.08;103135.03;5024503;28;20064;-70
2022/01/14 06:34:49;;;;;;;44.83;25.73;;;;;;;3.63;81.93;103130.63;5019627;28;20049;-70
2022/01/14 06:37:17;;;;;;;48.83;27.08;;;;;;;3.65;82.26;103131.25;5034812;28;20049;-70
2022/01/14 06:39:44;;;;;;;48.80;25.50;;;;;;;3.98;81.61;103125.78;5035803;28;20069;-71
2022/01/14 06:42:11;;;;;;;44.55;25.95;;;;;;;4.06;80.65;103120.13;5035444;28;20053;-71
2022/01/14 06:44:39;;;;;;;43.10;25.05;;;;;;;4.08;80.75;103120.75;5034932;28;20163;-71
2022/01/14 06:47:06;;;;;;;46.10;25.00;;;;;;;4.34;80.38;103123.44;5029230;28;20053;-70
2022/01/14 06:49:33;;;;;;;43.38;25.42;;;;;;;4.42;79.13;103129.50;5031511;28;20061;-71
2022/01/14 06:52:01;;;;;;;41.38;24.00;;;;;;;4.37;79.41;103126.56;5035301;28;20481;-70
2022/01/14 06:54:29;;;;;;;44.55;25.73;;;;;;;4.41;78.94;103111.44;5034903;28;20041;-70
2022/01/14 06:56:56;;;;;;;44.97;25.73;;;;;;;4.32;79.71;103122.81;5030957;28;20044;-70
2022/01/14 06:59:23;;;;;;;47.50;25.42;;;;;;;4.34;79.51;103120.72;5033552;28;20045;-70
2022/01/14 07:01:53;;;;;;;45.90;25.02;;;;;;;4.29;79.73;103117.75;5030308;28;20053;-69
2022/01/14 07:04:21;;;;;;;41.83;24.23;;;;;;;4.28;79.56;103116.94;5027463;28;20120;-70
2022/01/14 07:06:49;;;;;;;43.70;24.98;;;;;;;4.36;79.43;103111.25;5033211;28;20136;-69
2022/01/14 07:09:17;;;;;;;39.55;23.40;;;;;;;4.69;78.93;103113.84;5034000;28;20068;-68
2022/01/14 07:11:48;;;;;;;40.55;23.45;;;;;;;4.50;78.30;103106.56;5030773;28;20049;-69
2022/01/14 07:14:15;;;;;;;41.13;23.90;;;;;;;4.26;79.47;103104.56;5034159;28;20207;-67
2022/01/14 07:16:42;;;;;;;36.55;21.42;;;;;;;4.69;79.34;103100.19;5032277;28;20049;-70
2022/01/14 07:19:09;;;;;;;36.67;20.65;;;;;;;5.08;78.09;103091.81;5033909;28;20053;-70
2022/01/14 07:21:38;;;;;;;36.25;20.83;;;;;;;5.23;77.55;103088.78;5033498;28;20041;-70
2022/01/14 07:24:06;;;;;;;39.78;21.40;;;;;;;5.34;77.03;103099.00;5032672;28;20053;-70
2022/01/14 07:26:33;;;;;;;39.20;21.02;;;;;;;5.41;76.52;103097.91;5030004;28;20048;-72
2022/01/14 07:29:00;;;;;;;31.48;19.23;;;;;;;5.17;75.83;103092.41;5033025;28;20057;-72
2022/01/14 07:31:28;;;;;;;36.38;19.45;;;;;;;4.96;76.24;103099.03;5032592;28;20374;-71
2022/01/14 07:33:55;;;;;;;34.53;19.45;;;;;;;5.00;76.64;103104.91;5035073;28;20045;-71
2022/01/14 07:36:22;;;;;;;33.70;20.60;;;;;;;5.05;76.29;103097.72;5034158;28;20050;-72
2022/01/14 07:38:50;;;;;;;32.45;18.90;;;;;;;5.01;76.06;103099.22;5032411;28;20049;-72
2022/01/14 07:41:18;;;;;;;34.58;18.88;;;;;;;5.04;75.79;103095.22;5028407;28;20050;-71
2022/01/14 07:43:48;;;;;;;33.53;19.17;;;;;;;5.08;76.36;103093.72;5008234;28;20057;-71
2022/01/14 07:46:15;;;;;;;34.55;19.63;;;;;;;4.70;76.86;103098.31;5033812;28;20046;-71
2022/01/14 07:48:43;;;;;;;39.95;20.27;;;;;;;4.99;77.03;103101.31;5029483;28;20057;-71
2022/01/14 07:51:10;;;;;;;31.98;19.17;;;;;;;5.11;76.13;103107.75;5033012;28;20053;-72
2022/01/14 07:53:40;;;;;;;38.90;19.67;;;;;;;5.26;75.39;103099.28;5049525;28;20060;-71
2022/01/14 07:56:11;;;;;;;32.15;18.77;;;;;;;5.29;75.05;103105.13;5034944;28;20488;-71
2022/01/14 07:58:41;;;;;;;37.08;18.42;;;;;;;5.31;74.81;103115.84;5033927;28;20404;-71
2022/01/14 08:01:09;;;;;;;34.63;20.33;;;;;;;5.24;74.91;103110.44;5010829;28;20065;-72
2022/01/14 08:03:36;;;;;;;37.15;20.20;;;;;;;5.23;74.82;103116.94;5021396;28;20412;-72
2022/01/14 08:06:04;;;;;;;36.47;20.27;;;;;;;4.96;75.95;103117.31;5031174;28;20060;-71
2022/01/14 08:08:32;;;;;;;35.95;20.48;;;;;;;5.17;75.62;103114.25;5021580;28;20053;-73
2022/01/14 08:10:59;;;;;;;41.05;20.23;;;;;;;5.11;75.00;103117.88;5030759;28;20042;-72
2022/01/14 08:13:27;;;;;;;36.80;20.80;;;;;;;5.02;75.38;103116.44;5033890;28;20076;-70
2022/01/14 08:15:55;;;;;;;35.75;18.92;;;;;;;5.10;75.04;103117.03;5022830;28;20080;-68
2022/01/14 08:18:23;;;;;;;37.88;21.13;;;;;;;5.17;75.08;103112.38;5029358;28;20080;-67
2022/01/14 08:20:50;;;;;;;35.90;18.85;;;;;;;5.17;74.74;103114.25;5030203;28;20045;-69
2022/01/14 08:23:19;;;;;;;37.17;20.13;;;;;;;5.27;74.51;103114.59;5030127;28;20545;-67
2022/01/14 08:25:46;;;;;;;37.70;20.40;;;;;;;5.45;73.64;103111.97;5031516;28;20041;-67
2022/01/14 08:28:13;;;;;;;37.95;20.05;;;;;;;5.65;73.22;103131.78;5031528;28;20042;-69
2022/01/14 08:30:41;;;;;;;37.80;19.92;;;;;;;5.82;72.81;103132.06;5029899;28;20057;-69
2022/01/14 08:33:08;;;;;;;35.50;20.58;;;;;;;5.59;72.89;103117.13;5027190;28;20041;-69
2022/01/14 08:35:35;;;;;;;42.30;20.67;;;;;;;5.36;73.29;103129.69;5026683;28;20064;-69
2022/01/14 08:38:03;;;;;;;36.28;20.40;;;;;;;5.03;74.45;103126.31;5025165;28;20056;-70
2022/01/14 08:40:30;;;;;;;45.60;24.13;;;;;;;5.28;74.44;103122.56;5029807;28;20053;-74
2022/01/14 08:42:58;;;;;;;43.42;24.02;;;;;;;5.42;74.32;103131.53;5030281;28;22028;-71
2022/01/14 08:45:25;;;;;;;42.05;24.38;;;;;;;5.41;73.65;103119.75;5023221;28;20125;-72
2022/01/14 08:47:54;;;;;;;41.45;20.90;;;;;;;5.59;73.11;103121.75;5026027;28;20048;-70
2022/01/14 08:50:23;;;;;;;33.47;20.05;;;;;;;5.39;73.63;103126.50;5031636;28;20072;-69
2022/01/14 08:52:51;;;;;;;39.90;21.55;;;;;;;5.25;73.81;103133.94;5032189;28;20101;-71
2022/01/14 08:55:20;;;;;;;40.42;20.42;;;;;;;5.53;73.51;103131.66;5032784;28;20178;-70
2022/01/14 08:57:48;;;;;;;44.50;23.08;;;;;;;5.69;72.82;103128.41;5034561;28;20056;-70
2022/01/14 09:00:16;;;;;;;39.58;21.48;;;;;;;5.73;72.52;103126.91;5034956;28;20053;-69
2022/01/14 09:02:50;;;;;;;43.67;23.02;;;;;;;5.73;71.99;103124.16;5035209;28;20064;-69
2022/01/14 09:05:18;;;;;;;39.38;21.23;;;;;;;5.85;71.93;103115.25;5035473;28;20042;-68
2022/01/14 09:07:45;;;;;;;36.10;20.48;;;;;;;5.65;71.99;103116.22;5033552;28;20661;-67
2022/01/14 09:10:13;;;;;;;37.03;22.02;;;;;;;5.39;72.61;103112.84;5030682;28;20500;-67
2022/01/14 09:12:40;;;;;;;38.90;20.80;;;;;;;5.55;72.03;103113.16;5033205;28;20056;-68
2022/01/14 09:15:09;;;;;;;38.35;21.17;;;;;;;5.54;71.72;103114.19;5030683;28;20068;-67
2022/01/14 09:17:37;;;;;;;42.47;21.17;;;;;;;5.65;71.56;103118.09;5031253;28;20049;-68
2022/01/14 09:20:05;;;;;;;36.25;21.33;;;;;;;5.60;71.20;103117.94;5017191;28;20057;-69
2022/01/14 09:22:35;;;;;;;38.55;22.25;;;;;;;5.65;71.16;103116.22;5036088;28;20053;-69
2022/01/14 09:25:04;;;;;;;39.20;22.85;;;;;;;5.60;70.95;103112.47;5023017;28;20083;-67
2022/01/14 09:27:33;;;;;;;37.50;22.42;;;;;;;5.53;71.17;103108.94;5039935;28;20060;-68
2022/01/14 09:30:03;;;;;;;39.90;21.13;;;;;;;5.36;71.30;103105.09;5015905;28;20049;-68
2022/01/14 09:32:31;;;;;;;42.92;22.20;;;;;;;5.44;71.25;103105.66;5002565;28;20049;-68
2022/01/14 09:35:02;;;;;;;46.97;23.30;;;;;;;5.70;70.23;103102.72;5031773;28;20060;-67
2022/01/14 09:37:30;;;;;;;38.63;22.35;;;;;;;5.79;70.08;103105.19;5012629;28;20038;-67
2022/01/14 09:39:58;;;;;;;40.10;22.63;;;;;;;5.67;69.88;103103.16;5030540;28;20049;-68
2022/01/14 09:42:26;;;;;;;43.17;22.02;;;;;;;5.78;70.17;103100.75;5031280;28;20042;-69
2022/01/14 09:44:53;;;;;;;44.20;23.73;;;;;;;5.84;70.12;103102.66;5031076;28;20385;-68
2022/01/14 09:47:21;;;;;;;44.00;22.25;;;;;;;5.86;69.62;103109.53;5030203;28;20045;-68
2022/01/14 09:49:49;;;;;;;37.47;22.50;;;;;;;5.72;70.18;103110.69;5032797;28;20041;-68
2022/01/14 09:52:17;;;;;;;44.83;23.48;;;;;;;5.74;70.41;103116.78;5029153;28;20061;-68
2022/01/14 09:54:46;;;;;;;47.72;23.70;;;;;;;6.11;69.38;103106.78;5035333;28;20041;-68
2022/01/14 09:57:15;;;;;;;41.88;23.20;;;;;;;5.99;68.58;103114.06;5033750;28;20048;-68
2022/01/14 09:59:42;;;;;;;39.38;22.60;;;;;;;6.11;69.01;103115.84;5026963;28;20540;-68
2022/01/14 10:02:28;;;;;;;39.22;23.25;;;;;;;5.89;67.62;103116.47;5032796;28;20060;-69
2022/01/14 10:04:55;;;;;;;40.03;22.10;;;;;;;6.09;67.68;103117.13;5008361;28;20064;-67
2022/01/14 10:07:22;;;;;;;39.33;22.67;;;;;;;6.00;67.57;103127.50;5031496;28;20064;-68
2022/01/14 10:09:57;;;;;;;39.13;22.73;;;;;;;6.03;68.13;103135.31;5031177;28;20057;-68
2022/01/14 10:12:25;;;;;;;36.47;22.05;;;;;;;6.00;67.25;103129.44;5030032;28;20416;-68
2022/01/14 10:15:00;;;;;;;41.63;23.70;;;;;;;5.91;67.96;103136.25;5032564;28;20057;-70
2022/01/14 10:17:39;;;;;;;43.50;24.30;;;;;;;5.93;67.60;103129.47;5030725;28;20053;-68
2022/01/14 10:20:08;;;;;;;43.90;24.08;;;;;;;5.89;67.71;103135.63;5033530;28;20054;-68
2022/01/14 10:22:41;;;;;;;44.00;24.42;;;;;;;5.92;67.88;103137.91;5033380;28;20038;-68
2022/01/14 10:25:11;;;;;;;45.05;23.77;;;;;;;5.88;68.47;103133.94;5031678;28;20057;-69
2022/01/14 10:27:40;;;;;;;35.88;23.15;;;;;;;6.02;68.01;103130.88;5032269;28;20045;-68
2022/01/14 10:30:13;;;;;;;45.13;24.85;;;;;;;5.97;68.26;103130.72;5014211;28;20064;-68
2022/01/14 10:32:47;;;;;;;39.72;24.13;;;;;;;6.11;68.33;103121.31;5033005;28;20420;-68
2022/01/14 10:35:18;;;;;;;45.88;24.85;;;;;;;6.05;67.86;103124.94;5032014;28;20046;-69
2022/01/14 10:37:46;;;;;;;46.60;24.48;;;;;;;6.13;67.51;103126.56;5035115;28;20049;-71
2022/01/14 10:40:21;;;;;;;41.13;24.15;;;;;;;6.04;67.61;103123.28;5034344;28;20052;-69
2022/01/14 10:42:52;;;;;;;47.17;25.40;;;;;;;6.03;67.94;103123.50;5034571;28;20053;-69
2022/01/14 10:45:37;;;;;;;40.72;25.67;;;;;;;6.11;68.33;103123.22;5035374;28;20060;-71
2022/01/14 10:48:12;;;;;;;47.13;27.05;;;;;;;6.15;67.85;103106.13;5028584;28;20413;-68
2022/01/14 10:50:46;;;;;;;42.08;25.75;;;;;;;6.04;67.55;103104.13;5034175;28;20049;-69
2022/01/14 10:53:16;;;;;;;46.53;27.30;;;;;;;6.14;67.98;103107.19;5035492;28;20045;-68
2022/01/14 10:55:46;;;;;;;47.42;27.33;;;;;;;5.98;67.63;103105.00;5030118;28;20484;-68
2022/01/14 10:58:15;;;;;;;;;;;;;;;6.35;66.67;103098.53;5032554;28;20049;-67
2022/01/14 11:00:50;;;;;;;56.47;31.35;;;;;;;6.30;66.69;103092.06;5028759;28;19925;-68
2022/01/14 11:03:56;;;;;;;51.55;30.55;;;;;;;6.24;66.10;103091.06;5023290;28;20064;-68
2022/01/14 11:06:38;;;;;;;54.97;31.40;;;;;;;6.68;65.87;103096.25;5028396;28;20050;-68
2022/01/14 11:09:08;;;;;;;48.85;27.95;;;;;;;6.43;65.61;103092.75;5026323;28;20057;-67
2022/01/14 11:11:37;;;;;;;47.85;27.20;;;;;;;6.46;65.50;103100.53;5029850;28;20060;-69
2022/01/14 11:14:05;;;;;;;45.33;26.95;;;;;;;6.45;65.67;103098.84;5021568;28;20061;-68
2022/01/14 11:16:34;;;;;;;47.53;27.05;;;;;;;6.39;66.71;103086.06;5032830;28;20057;-69
2022/01/14 11:19:03;;;;;;;48.53;28.10;;;;;;;6.42;66.54;103080.13;5031745;28;20053;-68
2022/01/14 11:24:23;;;;;;;47.42;29.90;;;;;;;6.70;65.80;103072.22;5028702;28;20052;-67
2022/01/14 11:26:56;;;;;;;49.60;28.80;;;;;;;6.97;64.69;103075.44;5024955;28;20049;-71
2022/01/14 11:29:24;;;;;;;48.05;27.63;;;;;;;6.95;64.72;103074.81;5030868;28;20052;-68
2022/01/14 11:31:57;;;;;;;48.47;27.83;;;;;;;7.14;65.04;103073.72;5028917;28;20056;-68
2022/01/14 11:34:41;;;;;;;48.70;28.70;;;;;;;7.39;63.26;103065.31;5030663;28;20068;-69
2022/01/14 11:37:10;;;;;;;47.47;28.80;;;;;;;7.02;63.57;103063.75;5034683;28;20415;-69
2022/01/14 11:39:39;;;;;;;52.05;28.90;;;;;;;6.94;63.95;103064.09;5024549;28;20049;-68
2022/01/14 11:42:13;;;;;;;45.22;28.50;;;;;;;6.93;63.91;103046.81;5004318;28;20065;-68
2022/01/14 11:44:46;;;;;;;55.25;29.33;;;;;;;6.62;63.85;103052.53;5029247;28;20046;-68
2022/01/14 11:47:37;;;;;;;50.20;29.25;;;;;;;6.72;64.01;103045.44;5030612;28;20049;-68
2022/01/14 11:50:05;;;;;;;;;;;;;;;7.08;63.62;103030.78;5030184;28;20062;-67
2022/01/14 11:52:35;;;;;;;47.08;26.30;;;;;;;7.24;62.80;103035.59;5017224;28;19932;-67
2022/01/14 11:55:04;;;;;;;49.25;27.38;;;;;;;7.31;62.00;103025.38;5029309;28;20057;-67
2022/01/14 11:57:42;;;;;;;42.78;24.90;;;;;;;7.27;59.96;103024.16;5028390;28;20049;-68
2022/01/14 12:00:37;;;;;;;46.10;26.35;;;;;;;7.48;59.72;103020.03;5009475;28;20073;-68